Time;durP1;ratioP1;P1;durP2;ratioP2;P2;SDS_P1;SDS_P2;PMS_P1;PMS_P2;Temp;Humidity;BMP_temperature;BMP_pressure;BME280_temperature;BME280_humidity;BME280_pressure;Samples;Min_cycle;Max_cycle;Signal;HPM_P1;HPM_P2
2022/02/14 00:00:34;;;;;;;15.85;8.85;;;;;;;5.16;52.57;100584.50;4377944;32;33106;-82
2022/02/14 00:03:07;;;;;;;15.75;8.20;;;;;;;4.81;53.62;100586.53;4391336;32;34371;-83
2022/02/14 00:05:35;;;;;;;17.37;8.40;;;;;;;4.91;53.40;100583.84;4377256;32;33744;-82
2022/02/14 00:08:03;;;;;;;18.25;9.00;;;;;;;5.07;53.03;100585.44;4365527;32;33531;-82
2022/02/14 00:10:31;;;;;;;14.87;7.40;;;;;;;5.08;53.11;100581.94;4378542;32;33020;-83
2022/02/14 00:12:58;;;;;;;15.68;7.62;;;;;;;5.21;52.72;100578.34;4378961;32;33798;-82
2022/02/14 00:15:26;;;;;;;18.08;8.57;;;;;;;5.27;52.57;100582.66;4376971;32;33962;-82
2022/02/14 00:17:54;;;;;;;16.40;8.15;;;;;;;5.36;52.24;100566.84;4391397;32;33202;-83
2022/02/14 00:20:22;;;;;;;15.65;8.00;;;;;;;5.18;52.86;100565.31;4391320;32;34070;-82
2022/02/14 00:22:50;;;;;;;17.05;8.93;;;;;;;5.29;52.47;100571.28;4391300;32;34331;-83
2022/02/14 00:25:19;;;;;;;17.80;7.85;;;;;;;5.19;52.95;100567.03;4379459;32;34705;-83
2022/02/14 00:27:47;;;;;;;15.25;7.90;;;;;;;5.11;53.13;100566.22;4378335;32;33902;-82
2022/02/14 00:30:18;;;;;;;14.70;8.05;;;;;;;5.00;53.36;100562.84;4366975;32;33258;-82
2022/02/14 00:32:46;;;;;;;15.52;7.53;;;;;;;4.85;54.02;100550.75;4379009;32;32835;-82
2022/02/14 00:35:14;;;;;;;14.77;7.93;;;;;;;5.04;53.46;100546.25;4378850;32;34812;-82
2022/02/14 00:37:42;;;;;;;13.50;7.60;;;;;;;4.83;53.86;100545.53;4378424;32;32296;-84
2022/02/14 00:40:10;;;;;;;20.00;9.13;;;;;;;5.00;53.49;100540.16;4369993;32;32064;-81
2022/02/14 00:42:38;;;;;;;15.50;8.35;;;;;;;5.27;52.68;100541.66;4378673;32;33709;-81
2022/02/14 00:45:06;;;;;;;13.73;7.75;;;;;;;5.27;52.44;100536.41;4391620;32;33701;-82
2022/02/14 00:47:33;;;;;;;14.87;7.57;;;;;;;5.28;52.65;100540.75;4378752;32;34958;-82
2022/02/14 00:50:01;;;;;;;16.75;8.77;;;;;;;5.30;52.30;100528.50;4390993;32;33168;-82
2022/02/14 00:52:29;;;;;;;16.15;8.05;;;;;;;5.09;53.10;100536.59;4389936;32;32252;-81
2022/02/14 00:54:57;;;;;;;15.73;8.20;;;;;;;5.02;53.23;100530.53;4366180;32;33932;-83
2022/02/14 00:57:27;;;;;;;17.45;7.90;;;;;;;4.95;53.23;100533.22;4389472;32;34472;-82
2022/02/14 00:59:55;;;;;;;15.93;7.70;;;;;;;5.11;53.04;100524.34;4366710;32;32671;-82
2022/02/14 01:02:25;;;;;;;14.30;8.07;;;;;;;5.05;53.14;100524.41;4390982;32;33776;-82
2022/02/14 01:04:54;;;;;;;15.88;8.10;;;;;;;4.93;53.48;100535.84;4391364;32;34692;-81
2022/02/14 01:07:23;;;;;;;16.08;7.78;;;;;;;4.81;53.71;100526.38;4378924;32;33580;-83
2022/02/14 01:09:51;;;;;;;17.00;8.60;;;;;;;4.67;54.17;100522.13;4378005;32;33146;-82
2022/02/14 01:12:18;;;;;;;16.25;7.47;;;;;;;4.90;53.46;100514.09;4365698;32;33269;-82
2022/02/14 01:14:47;;;;;;;15.38;8.05;;;;;;;5.23;52.57;100505.03;4390171;32;33722;-81
2022/02/14 01:17:14;;;;;;;15.18;8.05;;;;;;;5.23;52.54;100505.03;4379193;32;33650;-82
2022/02/14 01:19:43;;;;;;;15.27;8.63;;;;;;;5.12;52.34;100507.75;4363332;32;32833;-81
2022/02/14 01:22:11;;;;;;;16.42;8.00;;;;;;;4.98;53.09;100502.63;4391352;32;33650;-81
2022/02/14 01:24:38;;;;;;;14.38;6.87;;;;;;;5.22;52.45;100501.56;4366422;32;34739;-81
2022/02/14 01:27:06;;;;;;;18.30;8.52;;;;;;;5.10;52.67;100492.06;4377282;32;33796;-81
2022/02/14 01:29:34;;;;;;;14.05;7.18;;;;;;;5.34;52.18;100495.31;4378569;32;33207;-82
2022/02/14 01:32:02;;;;;;;15.77;8.55;;;;;;;5.01;53.07;100483.44;4390454;32;33121;-81
2022/02/14 01:34:30;;;;;;;16.87;8.98;;;;;;;5.05;53.05;100487.75;4378390;32;34521;-82
2022/02/14 01:36:57;;;;;;;13.80;7.72;;;;;;;5.17;52.49;100482.38;4377941;32;33514;-82
2022/02/14 01:39:28;;;;;;;17.45;9.05;;;;;;;5.07;52.90;100480.75;4389993;32;33474;-82
2022/02/14 01:41:59;;;;;;;15.85;7.47;;;;;;;5.24;52.46;100476.22;4378580;32;33519;-81
2022/02/14 01:44:43;;;;;;;12.32;7.22;;;;;;;5.61;50.98;100478.41;4365471;32;34808;-81
2022/02/14 01:47:16;;;;;;;17.65;7.95;;;;;;;5.75;50.16;100473.84;4352334;32;33209;-81
2022/02/14 01:49:45;;;;;;;13.20;7.57;;;;;;;4.92;52.60;100476.53;4379254;32;32769;-81
2022/02/14 01:52:13;;;;;;;14.95;7.37;;;;;;;5.12;52.07;100473.72;4390552;32;33727;-81
2022/02/14 01:54:43;;;;;;;15.00;8.40;;;;;;;5.36;51.24;100464.72;4377375;32;34070;-81
2022/02/14 01:57:12;;;;;;;16.17;7.65;;;;;;;5.18;51.44;100468.44;4367113;32;34454;-81
2022/02/14 01:59:41;;;;;;;14.23;7.22;;;;;;;5.31;51.26;100458.66;4377314;32;32542;-81
2022/02/14 02:02:10;;;;;;;14.30;7.15;;;;;;;4.82;52.39;100454.84;4389783;32;32862;-81
2022/02/14 02:04:41;;;;;;;12.93;6.70;;;;;;;4.96;52.36;100456.44;4365682;32;33716;-81
2022/02/14 02:07:09;;;;;;;13.30;6.57;;;;;;;5.05;52.14;100444.13;4377773;32;33339;-81
2022/02/14 02:09:37;;;;;;;15.98;6.87;;;;;;;4.99;52.18;100445.97;4385000;32;33255;-81
2022/02/14 02:12:26;;;;;;;18.00;7.57;;;;;;;4.66;53.01;100449.78;4377433;32;34624;-81
2022/02/14 02:15:04;;;;;;;14.18;6.80;;;;;;;4.46;53.68;100455.16;4389329;32;33651;-81
2022/02/14 02:17:40;;;;;;;14.95;6.85;;;;;;;4.71;53.08;100438.38;4389088;32;34568;-82
2022/02/14 02:20:10;;;;;;;13.38;7.60;;;;;;;4.41;53.81;100447.34;4377749;32;32973;-81
2022/02/14 02:22:38;;;;;;;15.45;7.30;;;;;;;4.52;53.53;100444.66;4378155;32;33465;-81
2022/02/14 02:25:06;;;;;;;11.45;6.80;;;;;;;4.37;53.72;100443.91;4364869;32;34064;-81
2022/02/14 02:27:34;;;;;;;10.75;6.35;;;;;;;4.66;52.95;100445.41;4377043;32;33801;-81
2022/02/14 02:30:05;;;;;;;14.20;6.65;;;;;;;4.51;53.34;100446.41;4377693;32;33298;-81
2022/02/14 02:32:33;;;;;;;17.92;7.95;;;;;;;4.56;53.28;100430.69;4378769;32;34110;-81
2022/02/14 02:35:01;;;;;;;15.05;8.15;;;;;;;4.70;52.86;100426.19;4378537;32;33969;-82
2022/02/14 02:37:29;;;;;;;15.73;7.20;;;;;;;4.44;53.59;100425.56;4379359;32;33430;-83
2022/02/14 02:39:58;;;;;;;13.18;6.80;;;;;;;4.56;53.23;100428.06;4378943;32;32165;-82
2022/02/14 02:42:25;;;;;;;13.77;7.03;;;;;;;4.50;53.26;100426.34;4378795;32;33552;-82
2022/02/14 02:44:53;;;;;;;16.40;7.40;;;;;;;4.28;53.78;100427.44;4379484;32;32839;-82
2022/02/14 02:47:22;;;;;;;17.67;7.53;;;;;;;4.11;54.58;100417.09;4378907;32;33914;-83
2022/02/14 02:49:51;;;;;;;15.25;8.40;;;;;;;4.12;54.80;100418.81;4363794;32;31699;-83
2022/02/14 02:52:19;;;;;;;15.80;8.27;;;;;;;4.07;54.96;100420.59;4379518;32;33559;-84
2022/02/14 02:54:48;;;;;;;15.30;8.32;;;;;;;4.03;54.99;100422.38;4379541;32;34689;-84
2022/02/14 02:57:15;;;;;;;17.12;8.10;;;;;;;3.96;55.22;100417.22;4366934;32;32867;-84
2022/02/14 02:59:44;;;;;;;14.63;7.25;;;;;;;3.85;55.67;100415.53;4378962;32;33401;-83
2022/02/14 03:02:13;;;;;;;13.80;7.40;;;;;;;4.09;54.92;100416.25;4379574;32;33573;-83
2022/02/14 03:04:41;;;;;;;14.10;7.70;;;;;;;4.10;54.79;100420.59;4379150;32;34740;-83
2022/02/14 03:07:09;;;;;;;17.90;7.82;;;;;;;3.95;55.25;100415.50;4392478;32;34234;-83
2022/02/14 03:09:38;;;;;;;11.25;7.25;;;;;;;3.98;55.12;100415.44;4384326;32;33883;-83
2022/02/14 03:12:06;;;;;;;20.02;8.00;;;;;;;3.84;55.21;100419.00;4391389;32;33046;-83
2022/02/14 03:14:38;;;;;;;18.25;9.00;;;;;;;4.04;54.54;100410.19;4366579;32;33871;-83
2022/02/14 03:17:11;;;;;;;14.77;8.82;;;;;;;3.78;54.83;100413.84;4378880;32;34322;-83
2022/02/14 03:19:39;;;;;;;18.83;7.75;;;;;;;3.82;54.62;100414.69;4379301;32;33982;-83
2022/02/14 03:22:07;;;;;;;15.25;7.53;;;;;;;3.81;54.42;100408.59;4365818;32;34157;-84
2022/02/14 03:24:35;;;;;;;13.73;7.62;;;;;;;3.77;54.81;100406.03;4391798;32;32720;-84
2022/02/14 03:27:03;;;;;;;17.40;8.93;;;;;;;3.72;54.57;100399.97;4366610;32;33602;-84
2022/02/14 03:29:30;;;;;;;19.40;8.65;;;;;;;3.90;54.70;100401.59;4391875;32;32271;-84
2022/02/14 03:32:00;;;;;;;13.40;7.93;;;;;;;3.95;54.54;100394.59;4379931;32;33575;-83
2022/02/14 03:34:28;;;;;;;17.00;8.80;;;;;;;3.75;55.37;100386.84;4379217;32;34057;-83
2022/02/14 03:36:55;;;;;;;18.98;9.48;;;;;;;3.83;55.00;100383.31;4366868;32;33789;-83
2022/02/14 03:39:23;;;;;;;17.87;8.80;;;;;;;3.62;54.62;100386.09;4367059;32;33660;-83
2022/02/14 03:41:50;;;;;;;18.85;9.38;;;;;;;3.38;55.11;100399.28;4379568;32;34606;-84
2022/02/14 03:44:18;;;;;;;13.80;7.90;;;;;;;3.66;54.59;100387.81;4378162;32;34381;-84
2022/02/14 03:46:46;;;;;;;21.92;10.70;;;;;;;3.70;54.46;100393.84;4379876;32;33959;-83
2022/02/14 03:49:13;;;;;;;22.25;11.18;;;;;;;3.50;55.49;100391.38;4391900;32;33476;-84
2022/02/14 03:51:43;;;;;;;27.08;12.82;;;;;;;3.73;54.92;100392.09;4379556;32;33541;-84
2022/02/14 03:54:11;;;;;;;26.87;13.50;;;;;;;3.70;54.91;100383.41;4367125;32;33129;-83
2022/02/14 03:56:38;;;;;;;27.27;13.05;;;;;;;3.64;55.15;100383.47;4365071;32;34184;-83
2022/02/14 03:59:06;;;;;;;24.65;14.07;;;;;;;3.60;55.32;100382.59;4389967;32;32667;-83
2022/02/14 04:01:34;;;;;;;25.05;12.10;;;;;;;3.63;55.48;100382.59;4378969;32;33952;-83
2022/02/14 04:04:02;;;;;;;21.00;10.45;;;;;;;3.75;54.86;100379.91;4391578;32;33640;-85
2022/02/14 04:06:30;;;;;;;23.05;10.98;;;;;;;3.69;55.08;100377.31;4391352;32;33510;-84
2022/02/14 04:08:57;;;;;;;20.20;10.23;;;;;;;3.44;55.71;100387.06;4379573;32;33696;-84
2022/02/14 04:11:25;;;;;;;19.02;9.73;;;;;;;3.56;55.58;100378.28;4377078;32;33100;-84
2022/02/14 04:13:53;;;;;;;26.90;11.93;;;;;;;3.48;56.03;100382.69;4378629;32;33429;-84
2022/02/14 04:16:20;;;;;;;24.77;10.15;;;;;;;3.41;56.02;100378.38;4366756;32;33902;-84
2022/02/14 04:18:48;;;;;;;19.52;10.20;;;;;;;3.36;55.74;100380.13;4366172;32;32081;-84
2022/02/14 04:21:16;;;;;;;20.12;10.32;;;;;;;3.37;55.67;100376.66;4378980;32;33740;-83
2022/02/14 04:23:43;;;;;;;19.40;9.38;;;;;;;3.44;55.54;100373.13;4364405;32;33760;-83
2022/02/14 04:26:11;;;;;;;19.67;9.90;;;;;;;3.27;55.67;100373.22;4391395;32;32804;-83
2022/02/14 04:28:39;;;;;;;22.80;10.50;;;;;;;3.19;56.38;100372.41;4392500;32;33397;-83
2022/02/14 04:31:07;;;;;;;20.55;10.52;;;;;;;3.12;56.90;100371.53;4365587;32;33770;-83
2022/02/14 04:33:34;;;;;;;21.35;10.98;;;;;;;3.20;56.63;100375.00;4365695;32;34026;-83
2022/02/14 04:36:02;;;;;;;20.58;10.05;;;;;;;3.30;55.73;100379.28;4378793;32;33452;-83
2022/02/14 04:38:31;;;;;;;20.50;9.93;;;;;;;3.39;55.26;100372.31;4365357;32;33149;-83
2022/02/14 04:40:59;;;;;;;17.10;9.13;;;;;;;3.30;55.12;100366.25;4390915;32;35277;-83
2022/02/14 04:43:27;;;;;;;23.42;9.68;;;;;;;3.22;55.55;100365.41;4391323;32;33863;-83
2022/02/14 04:45:54;;;;;;;16.80;9.88;;;;;;;3.23;55.47;100366.25;4391130;32;34649;-83
2022/02/14 04:48:23;;;;;;;18.77;9.10;;;;;;;3.21;55.18;100363.69;4375920;32;32295;-83
2022/02/14 04:50:50;;;;;;;19.42;10.25;;;;;;;3.34;54.88;100360.13;4365694;32;32904;-82
2022/02/14 04:53:18;;;;;;;20.77;9.25;;;;;;;3.34;54.49;100367.09;4391022;32;32846;-83
2022/02/14 04:55:46;;;;;;;26.12;9.93;;;;;;;3.11;55.05;100367.19;4378486;32;34510;-83
2022/02/14 04:58:14;;;;;;;22.17;10.65;;;;;;;3.08;55.17;100367.22;4377884;32;33113;-83
2022/02/14 05:00:41;;;;;;;20.75;11.02;;;;;;;3.06;54.99;100363.75;4366081;32;33590;-83
2022/02/14 05:03:09;;;;;;;19.35;9.23;;;;;;;2.99;54.93;100362.91;4366080;32;35070;-83
2022/02/14 05:05:37;;;;;;;23.65;12.40;;;;;;;2.66;55.63;100363.91;4377275;32;33173;-84
2022/02/14 05:08:05;;;;;;;23.30;12.07;;;;;;;2.70;55.97;100369.94;4377639;32;33725;-84
2022/02/14 05:10:33;;;;;;;28.60;13.10;;;;;;;2.61;56.16;100363.03;4364596;32;34199;-84
2022/02/14 05:13:00;;;;;;;24.65;11.60;;;;;;;2.68;56.02;100367.34;4378281;32;32232;-84
2022/02/14 05:15:28;;;;;;;20.35;11.65;;;;;;;2.63;56.46;100363.03;4365090;32;34300;-84
2022/02/14 05:17:56;;;;;;;22.10;10.82;;;;;;;2.66;56.95;100363.00;4376969;32;31999;-84
2022/02/14 05:20:23;;;;;;;21.58;11.73;;;;;;;2.53;57.67;100365.66;4381439;32;34665;-84
2022/02/14 05:22:51;;;;;;;24.90;13.23;;;;;;;2.68;57.62;100366.50;4377473;32;33074;-83
2022/02/14 05:25:19;;;;;;;23.52;12.88;;;;;;;2.49;58.57;100370.88;4379175;32;32924;-83
2022/02/14 05:27:49;;;;;;;25.33;15.75;;;;;;;2.42;58.78;100369.13;4387816;32;32383;-83
2022/02/14 05:30:16;;;;;;;20.02;12.25;;;;;;;2.21;59.66;100375.25;4390993;32;34768;-83
2022/02/14 05:32:44;;;;;;;21.98;11.65;;;;;;;2.51;58.94;100380.41;4377704;32;32554;-82
2022/02/14 05:35:12;;;;;;;21.27;11.85;;;;;;;2.43;58.86;100381.31;4377319;32;32780;-83
2022/02/14 05:37:40;;;;;;;28.30;12.80;;;;;;;2.40;58.78;100381.31;4389617;32;31553;-83
2022/02/14 05:40:08;;;;;;;25.88;11.55;;;;;;;2.44;58.75;100380.44;4376609;32;34840;-80
2022/02/14 05:42:35;;;;;;;25.27;12.70;;;;;;;2.38;58.96;100375.25;4389339;32;33710;-82
2022/02/14 05:45:03;;;;;;;23.45;12.75;;;;;;;2.46;58.85;100383.91;4383442;32;34190;-82
2022/02/14 05:47:33;;;;;;;28.25;13.48;;;;;;;2.35;59.18;100383.91;4352520;32;32991;-82
2022/02/14 05:50:00;;;;;;;21.15;11.80;;;;;;;2.46;59.03;100387.38;4389774;32;33421;-82
2022/02/14 05:52:28;;;;;;;25.30;11.65;;;;;;;2.33;59.35;100390.88;4365016;32;34488;-83
2022/02/14 05:54:55;;;;;;;23.58;11.68;;;;;;;2.49;58.95;100387.38;4364312;32;33371;-83
2022/02/14 05:57:23;;;;;;;24.10;12.82;;;;;;;2.54;58.69;100384.75;4388632;32;32201;-83
2022/02/14 05:59:51;;;;;;;25.55;12.07;;;;;;;2.64;58.42;100383.88;4389124;32;33972;-83
2022/02/14 06:02:19;;;;;;;27.75;12.68;;;;;;;2.40;58.98;100387.38;4388259;32;33925;-84
2022/02/14 06:04:47;;;;;;;21.15;11.63;;;;;;;2.73;58.08;100381.25;4363754;32;32900;-85
2022/02/14 06:07:14;;;;;;;24.55;11.48;;;;;;;2.47;58.93;100383.03;4376499;32;32698;-84
2022/02/14 06:09:42;;;;;;;23.73;11.43;;;;;;;2.62;58.73;100377.81;4376218;32;33803;-84
2022/02/14 06:12:10;;;;;;;25.37;12.00;;;;;;;2.51;59.22;100379.53;4380291;32;34721;-84
2022/02/14 06:14:40;;;;;;;30.50;13.90;;;;;;;2.28;59.71;100371.78;4377836;32;33031;-84
2022/02/14 06:17:07;;;;;;;28.02;12.68;;;;;;;2.14;60.65;100374.41;4378711;32;33206;-84
2022/02/14 06:19:35;;;;;;;27.75;13.18;;;;;;;2.23;60.36;100374.41;4389602;32;32660;-84
2022/02/14 06:22:03;;;;;;;25.67;13.20;;;;;;;2.60;59.10;100373.44;4372322;32;34252;-84
2022/02/14 06:24:30;;;;;;;29.58;13.23;;;;;;;2.15;60.29;100370.91;4379771;32;33813;-84
2022/02/14 06:27:08;;;;;;;28.60;13.40;;;;;;;2.11;60.72;100378.72;4377363;32;32808;-84
2022/02/14 06:29:37;;;;;;;31.98;13.88;;;;;;;2.18;60.70;100370.03;4389002;32;33150;-84
2022/02/14 06:32:06;;;;;;;33.17;15.68;;;;;;;2.11;60.93;100377.00;4376873;32;34333;-84
2022/02/14 06:34:34;;;;;;;36.50;15.48;;;;;;;2.26;60.51;100376.97;4371757;32;33290;-86
2022/02/14 06:37:02;;;;;;;35.28;14.70;;;;;;;2.17;60.57;100374.38;4377255;32;34490;-84
2022/02/14 06:39:30;;;;;;;29.65;14.43;;;;;;;2.45;59.73;100370.00;4378097;32;35781;-84
2022/02/14 06:41:58;;;;;;;29.70;14.95;;;;;;;2.37;60.05;100373.47;4378342;32;32736;-84
2022/02/14 06:44:25;;;;;;;25.33;13.13;;;;;;;2.37;60.02;100370.88;4377547;32;33503;-84
2022/02/14 06:46:54;;;;;;;30.50;13.60;;;;;;;2.63;59.30;100374.31;4361515;32;30603;-84
2022/02/14 06:49:21;;;;;;;24.15;11.60;;;;;;;2.59;59.82;100376.94;4377561;32;34319;-84
2022/02/14 06:51:49;;;;;;;28.23;12.27;;;;;;;2.65;59.64;100377.78;4377910;32;33077;-84
2022/02/14 06:54:17;;;;;;;24.02;12.73;;;;;;;2.62;59.92;100372.59;4365460;32;34272;-83
2022/02/14 06:56:44;;;;;;;21.83;10.95;;;;;;;2.17;61.49;100379.59;4388452;32;33098;-84
2022/02/14 06:59:13;;;;;;;24.85;12.05;;;;;;;1.73;63.02;100380.44;4361257;32;33430;-84
2022/02/14 07:01:42;;;;;;;25.12;10.90;;;;;;;1.75;63.40;100383.91;4377354;32;33243;-84
2022/02/14 07:04:10;;;;;;;26.98;12.95;;;;;;;1.76;63.51;100377.84;4389579;32;32987;-84
2022/02/14 07:06:40;;;;;;;25.75;12.13;;;;;;;2.06;62.59;100386.53;4383527;32;31541;-84
2022/02/14 07:09:08;;;;;;;24.27;12.40;;;;;;;2.16;62.41;100383.06;4394485;32;33892;-83
2022/02/14 07:11:36;;;;;;;25.33;12.37;;;;;;;2.19;62.45;100379.59;4365219;32;32623;-84
2022/02/14 07:14:03;;;;;;;29.27;12.57;;;;;;;2.21;62.42;100376.13;4366048;32;34602;-84
2022/02/14 07:16:31;;;;;;;25.55;13.05;;;;;;;2.43;61.99;100370.91;4377045;32;33854;-84
2022/02/14 07:18:59;;;;;;;34.53;12.43;;;;;;;2.45;61.82;100372.59;4390412;32;33814;-84
2022/02/14 07:21:28;;;;;;;28.10;12.05;;;;;;;2.69;61.25;100382.13;4379104;32;33872;-84
2022/02/14 07:23:55;;;;;;;24.83;12.85;;;;;;;3.07;59.97;100381.12;4379580;32;33490;-84
2022/02/14 07:26:23;;;;;;;31.02;12.23;;;;;;;2.66;61.13;100382.16;4380655;32;32715;-84
2022/02/14 07:28:51;;;;;;;31.27;13.82;;;;;;;2.45;62.05;100379.56;4393027;32;34004;-84
2022/02/14 07:31:26;;;;;;;25.95;13.25;;;;;;;2.10;63.24;100388.28;4369874;32;32920;-84
2022/02/14 07:33:53;;;;;;;29.50;13.62;;;;;;;2.51;62.39;100388.22;4380203;32;33908;-84
2022/02/14 07:36:21;;;;;;;25.80;13.88;;;;;;;2.34;62.85;100376.13;4377542;32;31972;-84
2022/02/14 07:38:49;;;;;;;32.63;15.13;;;;;;;2.31;62.91;100374.38;4376876;32;32195;-84
2022/02/14 07:41:17;;;;;;;27.50;13.70;;;;;;;2.08;63.65;100384.78;4382133;32;33240;-84
2022/02/14 07:43:44;;;;;;;36.17;13.52;;;;;;;2.21;63.34;100381.31;4379204;32;33716;-84
2022/02/14 07:46:12;;;;;;;29.77;14.57;;;;;;;2.39;63.25;100374.38;4391622;32;31989;-86
2022/02/14 07:48:44;;;;;;;27.45;14.65;;;;;;;2.60;62.70;100373.44;4364989;32;34736;-86
2022/02/14 07:51:16;;;;;;;30.80;14.57;;;;;;;3.04;61.41;100376.81;4367594;32;33864;-85
2022/02/14 07:53:44;;;;;;;26.77;13.62;;;;;;;2.89;61.65;100375.97;4354984;32;33196;-86
2022/02/14 07:56:14;;;;;;;22.15;13.25;;;;;;;3.15;60.95;100376.75;4369171;32;32603;-85
2022/02/14 07:58:46;;;;;;;28.03;14.37;;;;;;;2.82;62.10;100376.00;4379658;32;33215;-86
2022/02/14 08:01:14;;;;;;;29.20;14.10;;;;;;;3.17;61.19;100369.78;4364341;32;33931;-85
2022/02/14 08:03:43;;;;;;;34.17;13.13;;;;;;;3.49;60.35;100366.16;4377729;32;33845;-86
2022/02/14 08:06:30;;;;;;;22.23;12.05;;;;;;;3.19;60.88;100367.19;4369747;32;32792;-84
2022/02/14 08:08:57;;;;;;;21.33;11.90;;;;;;;3.33;60.68;100362.75;4367989;32;34611;-85
2022/02/14 08:11:25;;;;;;;25.85;13.45;;;;;;;3.38;60.49;100365.34;4367494;32;33681;-86
2022/02/14 08:13:53;;;;;;;25.75;12.88;;;;;;;3.66;59.90;100361.69;4379781;32;34702;-84
2022/02/14 08:16:20;;;;;;;31.95;13.02;;;;;;;3.50;60.27;100360.03;4379893;32;33445;-83
2022/02/14 08:18:48;;;;;;;27.77;13.55;;;;;;;3.05;61.18;100357.66;4376945;32;33857;-83
2022/02/14 08:21:15;;;;;;;23.50;11.10;;;;;;;3.66;59.97;100351.25;4376316;32;33005;-83
2022/02/14 08:23:43;;;;;;;25.60;13.52;;;;;;;3.79;59.83;100352.00;4364627;32;35044;-83
2022/02/14 08:26:11;;;;;;;27.10;12.52;;;;;;;3.54;60.29;100340.88;4385287;32;33084;-83
2022/02/14 08:28:39;;;;;;;24.23;11.90;;;;;;;3.51;60.51;100346.09;4378460;32;32757;-83
2022/02/14 08:31:07;;;;;;;26.65;13.20;;;;;;;3.78;59.83;100340.69;4394876;32;34555;-83
2022/02/14 08:33:34;;;;;;;27.48;13.73;;;;;;;3.79;59.94;100342.41;4365255;32;33927;-84
2022/02/14 08:36:02;;;;;;;25.33;13.18;;;;;;;4.16;59.13;100329.06;4381157;32;32304;-84
2022/02/14 08:38:31;;;;;;;24.48;12.77;;;;;;;4.10;59.30;100326.50;4366890;32;34196;-85
2022/02/14 08:40:58;;;;;;;29.17;14.27;;;;;;;4.18;58.98;100322.09;4378521;32;34061;-84
2022/02/14 08:43:26;;;;;;;29.08;13.88;;;;;;;4.39;59.06;100328.84;4361940;32;33422;-84
2022/02/14 08:46:04;;;;;;;24.25;12.85;;;;;;;4.73;58.26;100308.41;4392223;32;32647;-84
2022/02/14 08:48:32;;;;;;;30.40;14.45;;;;;;;4.39;58.01;100301.84;4366903;32;33115;-84
2022/02/14 08:51:00;;;;;;;26.45;13.98;;;;;;;4.26;58.79;100312.41;4379487;32;33735;-84
2022/02/14 08:53:31;;;;;;;25.67;13.18;;;;;;;4.53;58.49;100310.41;4379312;32;33525;-84
2022/02/14 08:56:03;;;;;;;25.97;14.37;;;;;;;4.68;58.09;100307.59;4387450;32;33339;-84
2022/02/14 08:58:32;;;;;;;30.53;14.40;;;;;;;4.74;57.63;100301.44;4365139;32;34152;-84
2022/02/14 09:01:01;;;;;;;29.92;13.13;;;;;;;5.21;56.64;100300.81;4379519;32;32969;-84
2022/02/14 09:03:28;;;;;;;23.02;13.18;;;;;;;5.21;56.84;100297.34;4379185;32;32952;-84
2022/02/14 09:05:56;;;;;;;30.45;14.35;;;;;;;5.04;57.55;100297.59;4391624;32;33605;-84
2022/02/14 09:08:25;;;;;;;30.00;14.80;;;;;;;5.36;56.49;100294.50;4365736;32;33121;-84
2022/02/14 09:10:53;;;;;;;26.83;14.07;;;;;;;5.46;56.68;100290.00;4379582;32;34006;-84
2022/02/14 09:13:21;;;;;;;27.45;14.32;;;;;;;5.63;56.42;100287.97;4367133;32;34066;-84
2022/02/14 09:15:49;;;;;;;26.37;13.38;;;;;;;5.72;55.12;100281.75;4376698;32;33677;-84
2022/02/14 09:18:16;;;;;;;33.47;14.27;;;;;;;6.29;54.03;100269.41;4365332;32;34740;-85
2022/02/14 09:20:45;;;;;;;30.02;15.20;;;;;;;6.11;55.15;100274.97;4392030;32;33426;-84
2022/02/14 09:23:14;;;;;;;27.05;14.75;;;;;;;6.27;53.84;100265.97;4367209;32;32444;-84
2022/02/14 09:25:41;;;;;;;25.73;13.90;;;;;;;6.28;53.83;100267.69;4366055;32;33374;-84
2022/02/14 09:28:09;;;;;;;30.33;15.48;;;;;;;6.40;53.57;100261.31;4378831;32;33391;-85
2022/02/14 09:30:37;;;;;;;30.37;15.45;;;;;;;6.33;53.84;100263.22;4366573;32;33190;-85
2022/02/14 09:33:05;;;;;;;27.33;15.18;;;;;;;6.52;53.76;100265.47;4376122;32;33114;-84
2022/02/14 09:35:33;;;;;;;30.25;14.95;;;;;;;6.97;53.38;100262.78;4366489;32;34441;-84
2022/02/14 09:38:03;;;;;;;27.48;14.70;;;;;;;7.23;51.62;100255.22;4364214;32;34342;-84
2022/02/14 09:40:33;;;;;;;;;;;;;;;6.78;51.83;100257.94;4373729;32;34375;-84
2022/02/14 09:43:13;;;;;;;25.80;13.20;;;;;;;6.75;54.14;100263.25;4379599;32;34774;-84
2022/02/14 09:45:42;;;;;;;29.30;14.80;;;;;;;6.85;52.86;100258.69;4391260;32;33902;-85
2022/02/14 09:48:12;;;;;;;29.70;15.15;;;;;;;7.20;52.91;100250.03;4378141;32;33878;-85
2022/02/14 09:50:40;;;;;;;25.00;14.10;;;;;;;7.42;50.99;100251.25;4378604;32;34538;-88
2022/02/14 09:53:11;;;;;;;26.17;13.13;;;;;;;7.08;53.11;100245.06;4388354;32;33243;-87
2022/02/14 09:55:44;;;;;;;27.27;13.45;;;;;;;7.46;50.79;100240.69;4364178;32;33989;-88
2022/02/14 09:58:12;;;;;;;24.45;13.88;;;;;;;7.80;50.13;100238.94;4398943;32;31278;-89
2022/02/14 10:00:40;;;;;;;28.40;14.68;;;;;;;7.60;50.54;100228.06;4375113;32;32915;-88
2022/02/14 10:03:15;;;;;;;23.73;14.32;;;;;;;7.84;49.75;100226.59;4399652;32;33112;-89
2022/02/14 10:05:52;;;;;;;26.87;14.27;;;;;;;8.21;48.82;100222.09;4387796;32;32308;-88
2022/02/14 10:08:25;;;;;;;24.80;13.60;;;;;;;8.16;49.53;100225.72;4374896;32;34697;-85
2022/02/14 10:11:09;;;;;;;27.50;14.87;;;;;;;8.34;48.58;100216.47;4383638;32;31874;-85
2022/02/14 10:13:39;;;;;;;29.50;15.07;;;;;;;8.72;47.65;100216.25;4373346;32;31729;-85
2022/02/14 10:16:12;;;;;;;25.05;13.73;;;;;;;8.45;49.54;100212.69;4373486;32;32818;-85
2022/02/14 10:18:41;;;;;;;19.62;13.15;;;;;;;8.84;47.95;100207.16;4385563;32;33566;-85
2022/02/14 10:21:26;;;;;;;26.02;14.38;;;;;;;8.93;48.31;100204.25;4377018;32;33259;-85
2022/02/14 10:24:04;;;;;;;23.33;13.52;;;;;;;9.56;47.16;100201.38;4361738;32;33564;-85
2022/02/14 10:26:34;;;;;;;26.33;14.20;;;;;;;9.31;46.57;100196.91;4387384;32;33582;-84
2022/02/14 10:29:20;;;;;;;26.02;14.70;;;;;;;9.03;46.82;100201.34;4367595;32;33929;-85
2022/02/14 10:31:54;;;;;;;25.62;13.80;;;;;;;9.43;46.94;100190.38;4375136;32;32962;-85
2022/02/14 10:34:33;;;;;;;25.00;13.25;;;;;;;9.74;46.35;100195.50;4371243;32;32461;-85
2022/02/14 10:37:01;;;;;;;27.65;14.80;;;;;;;9.54;45.80;100192.66;4359583;32;32647;-85
2022/02/14 10:39:28;;;;;;;27.87;14.30;;;;;;;9.31;45.85;100193.41;4347922;32;35314;-85
2022/02/14 10:41:56;;;;;;;24.75;13.43;;;;;;;8.94;47.39;100190.16;4358908;32;33535;-85
2022/02/14 10:47:19;;;;;;;23.52;13.20;;;;;;;9.77;45.94;100169.00;4349488;32;32922;-85
2022/02/14 10:49:56;;;;;;;23.62;13.93;;;;;;;9.07;47.08;100171.31;4384193;32;33657;-85
2022/02/14 10:52:24;;;;;;;30.05;14.73;;;;;;;9.13;48.36;100165.87;4360185;32;34328;-85
2022/02/14 10:54:52;;;;;;;33.55;16.85;;;;;;;9.04;47.67;100160.91;4371964;32;33116;-85
2022/02/14 10:57:29;;;;;;;23.48;13.70;;;;;;;9.44;47.68;100169.22;4373799;32;33516;-85
2022/02/14 11:00:06;;;;;;;23.45;13.68;;;;;;;9.28;46.97;100165.38;4361436;32;34371;-85
2022/02/14 11:02:34;;;;;;;26.45;13.02;;;;;;;9.11;48.18;100157.16;4374038;32;34348;-86
2022/02/14 11:05:03;;;;;;;23.00;13.48;;;;;;;9.69;47.01;100145.56;4373729;32;33662;-85
2022/02/14 11:07:31;;;;;;;24.83;14.77;;;;;;;9.84;46.21;100146.78;4360548;32;32119;-85
2022/02/14 11:10:00;;;;;;;23.73;13.60;;;;;;;9.67;46.42;100141.22;4361370;32;32795;-85
2022/02/14 11:12:30;;;;;;;35.92;14.50;;;;;;;9.43;47.21;100154.31;4374599;32;33718;-88
2022/02/14 11:15:00;;;;;;;22.45;14.43;;;;;;;9.67;47.00;100147.34;4360957;32;33632;-87
2022/02/14 11:17:29;;;;;;;22.45;13.73;;;;;;;9.61;47.27;100141.44;4361283;32;32984;-87
2022/02/14 11:20:00;;;;;;;24.52;14.63;;;;;;;9.41;48.55;100131.59;4361856;32;34268;-85
2022/02/14 11:22:30;;;;;;;28.00;14.98;;;;;;;9.38;47.88;100135.16;4373407;32;33929;-85
2022/02/14 11:25:05;;;;;;;27.37;13.45;;;;;;;9.35;47.91;100135.28;4361236;32;33523;-85
2022/02/14 11:27:37;;;;;;;22.65;13.07;;;;;;;9.34;48.17;100144.09;4360321;32;32190;-84
2022/02/14 11:30:07;;;;;;;23.83;13.27;;;;;;;9.56;48.11;100128.44;4373044;32;32743;-85